Time;durP1;ratioP1;P1;durP2;ratioP2;P2;SDS_P1;SDS_P2;PMS_P1;PMS_P2;Temp;Humidity;BMP_temperature;BMP_pressure;BME280_temperature;BME280_humidity;BME280_pressure;Samples;Min_cycle;Max_cycle;Signal;HPM_P1;HPM_P2
2023/10/15 00:04:51;;;;;;;14.73;6.88;;;;;;;3.82;nan;101456.78;10322389;28;20046;-77
2023/10/15 00:09:52;;;;;;;16.02;8.02;;;;;;;3.95;nan;101456.13;10320220;28;20179;-77
2023/10/15 00:14:52;;;;;;;20.63;8.63;;;;;;;3.95;nan;101464.81;10307655;28;20060;-77
2023/10/15 00:19:53;;;;;;;11.95;5.55;;;;;;;3.77;nan;101466.72;10308449;28;20046;-77
2023/10/15 00:24:53;;;;;;;16.27;7.40;;;;;;;3.73;nan;101466.38;10340877;28;20045;-77
2023/10/15 00:29:54;;;;;;;10.70;6.78;;;;;;;3.75;nan;101470.88;10307026;28;20049;-78
2023/10/15 00:34:54;;;;;;;14.10;8.88;;;;;;;3.73;nan;101463.78;10342851;28;20397;-78
2023/10/15 00:39:58;;;;;;;17.17;7.35;;;;;;;3.66;nan;101464.91;10323955;28;20041;-77
2023/10/15 00:44:59;;;;;;;14.95;9.00;;;;;;;3.66;nan;101460.66;10305609;28;20417;-78
2023/10/15 00:50:07;;;;;;;26.60;7.40;;;;;;;3.64;nan;101458.69;10325907;28;20060;-77
2023/10/15 00:55:19;;;;;;;20.35;8.27;;;;;;;3.59;nan;101447.06;10309120;28;20046;-77
2023/10/15 01:05:53;;;;;;;21.55;10.40;;;;;;;3.78;nan;101450.41;10342431;28;20820;-77
2023/10/15 01:11:10;;;;;;;14.07;7.57;;;;;;;3.70;nan;101446.28;10327294;28;20053;-77
2023/10/15 01:16:13;;;;;;;24.08;9.75;;;;;;;3.80;nan;101447.97;10348403;28;20517;-77
2023/10/15 01:21:16;;;;;;;13.40;7.05;;;;;;;3.97;nan;101464.91;10315174;28;20686;-77
2023/10/15 01:26:23;;;;;;;22.70;9.15;;;;;;;4.19;nan;101465.03;10316333;28;20054;-77
2023/10/15 01:31:24;;;;;;;17.45;10.10;;;;;;;4.39;nan;101456.31;10314866;28;20060;-77
2023/10/15 01:36:28;;;;;;;16.40;8.93;;;;;;;4.51;nan;101458.09;10314751;28;20117;-77
2023/10/15 01:41:29;;;;;;;27.17;10.82;;;;;;;4.60;nan;101451.06;10326070;28;20066;-77
2023/10/15 01:46:48;;;;;;;21.88;10.02;;;;;;;4.68;nan;101456.88;10332848;28;20073;-77
2023/10/15 01:51:53;;;;;;;20.75;10.77;;;;;;;4.74;nan;101461.63;10303640;28;20050;-78
2023/10/15 01:56:55;;;;;;;22.70;10.23;;;;;;;4.75;nan;101447.88;10310645;28;20050;-77
2023/10/15 02:01:56;;;;;;;25.25;12.63;;;;;;;4.83;nan;101432.19;10314506;28;20050;-77
2023/10/15 02:06:58;;;;;;;22.05;10.70;;;;;;;4.94;nan;101440.81;10330327;28;20058;-78
2023/10/15 02:11:58;;;;;;;15.35;8.75;;;;;;;4.84;nan;101439.19;10327324;28;20145;-77
2023/10/15 02:16:59;;;;;;;19.77;9.23;;;;;;;4.76;nan;101436.72;10325570;28;21906;-78
2023/10/15 02:22:06;;;;;;;16.83;8.27;;;;;;;4.86;nan;101428.91;10312411;28;20510;-78
2023/10/15 02:27:08;;;;;;;20.35;9.77;;;;;;;4.98;nan;101408.25;10326118;28;20053;-78
2023/10/15 02:32:22;;;;;;;17.35;9.75;;;;;;;5.07;nan;101408.97;10309742;28;20197;-78
2023/10/15 02:37:23;;;;;;;15.45;8.95;;;;;;;4.94;nan;101414.84;10311561;28;20050;-78
2023/10/15 02:42:36;;;;;;;15.13;6.60;;;;;;;4.82;nan;101420.00;10314262;28;20125;-77
2023/10/15 02:47:48;;;;;;;13.55;8.00;;;;;;;4.83;nan;101424.41;10306791;28;20137;-78
2023/10/15 02:52:48;;;;;;;12.38;8.20;;;;;;;4.99;nan;101442.06;10301941;28;20145;-78
2023/10/15 02:57:51;;;;;;;15.02;8.48;;;;;;;5.09;nan;101435.00;10307374;28;20045;-78
2023/10/15 03:02:52;;;;;;;14.02;6.85;;;;;;;5.15;nan;101422.53;10327461;28;20145;-79
2023/10/15 03:07:52;;;;;;;14.55;7.18;;;;;;;5.13;nan;101421.50;10310493;28;20045;-78
2023/10/15 03:12:53;;;;;;;13.85;5.47;;;;;;;5.12;nan;101430.06;10315777;28;20044;-78
2023/10/15 03:17:56;;;;;;;12.60;5.45;;;;;;;5.14;nan;101451.84;10326000;28;20049;-78
2023/10/15 03:23:00;;;;;;;12.43;4.97;;;;;;;5.23;nan;101421.44;10340759;28;20040;-78
2023/10/15 03:28:00;;;;;;;13.80;6.30;;;;;;;5.29;nan;101427.09;10361320;28;20486;-77
2023/10/15 03:33:01;;;;;;;14.05;5.07;;;;;;;5.39;nan;101404.44;10378575;28;20065;-77
2023/10/15 03:38:06;;;;;;;8.98;4.63;;;;;;;5.29;nan;101401.16;10359743;28;20042;-78
2023/10/15 03:43:07;;;;;;;13.02;5.45;;;;;;;5.09;nan;101398.69;10360307;28;20485;-77
2023/10/15 03:48:14;;;;;;;11.57;4.50;;;;;;;4.95;nan;101403.69;10361287;28;20038;-77
2023/10/15 03:53:14;;;;;;;8.10;4.50;;;;;;;4.74;nan;101394.22;10372665;28;20026;-77
2023/10/15 03:58:18;;;;;;;8.32;3.85;;;;;;;4.64;nan;101400.38;10375411;28;20058;-77
2023/10/15 04:03:22;;;;;;;10.10;4.43;;;;;;;4.68;nan;101451.69;10343659;28;20124;-77
2023/10/15 04:08:25;;;;;;;8.02;3.47;;;;;;;5.00;nan;101463.75;10359510;28;20133;-77
2023/10/15 04:13:26;;;;;;;10.50;6.10;;;;;;;5.17;nan;101459.88;10356748;28;20037;-78
2023/10/15 04:18:29;;;;;;;16.35;8.82;;;;;;;5.19;nan;101466.09;10359420;28;20124;-79
2023/10/15 04:23:30;;;;;;;12.43;7.53;;;;;;;5.21;nan;101472.31;10345057;28;20128;-79
2023/10/15 04:28:31;;;;;;;13.23;8.88;;;;;;;5.31;nan;101484.34;10342679;28;20494;-78
2023/10/15 04:33:32;;;;;;;17.40;10.82;;;;;;;5.37;nan;101471.84;10358781;28;20508;-79
2023/10/15 04:38:33;;;;;;;15.18;11.75;;;;;;;5.52;nan;101489.41;10358832;28;20048;-79
2023/10/15 04:43:45;;;;;;;12.20;10.98;;;;;;;5.54;nan;101488.72;10357733;28;20125;-78
2023/10/15 04:48:50;;;;;;;16.75;11.82;;;;;;;5.50;nan;101511.75;10359490;28;20041;-79
2023/10/15 04:53:51;;;;;;;14.30;10.38;;;;;;;5.44;nan;101501.78;10344650;28;20034;-79
2023/10/15 04:58:51;;;;;;;11.73;9.80;;;;;;;5.43;nan;101525.91;10359380;28;20038;-78
2023/10/15 05:03:52;;;;;;;13.40;10.43;;;;;;;5.45;nan;101516.56;10359681;28;20203;-79
2023/10/15 05:08:53;;;;;;;15.32;10.45;;;;;;;5.36;nan;101521.03;10357268;28;20116;-78
2023/10/15 05:13:54;;;;;;;12.48;7.75;;;;;;;5.20;nan;101505.94;10359219;28;20104;-77
2023/10/15 05:18:54;;;;;;;8.68;6.40;;;;;;;5.06;nan;101487.59;10373496;28;20673;-76
2023/10/15 05:23:55;;;;;;;7.90;6.05;;;;;;;4.88;nan;101489.59;10356208;28;20044;-76
2023/10/15 05:28:55;;;;;;;10.60;7.38;;;;;;;4.82;nan;101483.91;10340176;28;20042;-76
2023/10/15 05:33:56;;;;;;;13.98;8.10;;;;;;;4.82;nan;101478.72;10341869;28;20057;-76
2023/10/15 05:38:56;;;;;;;11.23;8.48;;;;;;;4.70;nan;101479.53;10374684;28;20461;-76
2023/10/15 05:43:57;;;;;;;13.52;8.05;;;;;;;4.41;nan;101487.56;10355352;28;20052;-77
2023/10/15 05:48:59;;;;;;;14.27;8.80;;;;;;;4.19;nan;101487.44;10366777;28;20038;-76
2023/10/15 05:54:00;;;;;;;12.17;7.17;;;;;;;4.20;nan;101484.06;10363360;28;20041;-76
2023/10/15 05:59:00;;;;;;;10.75;8.30;;;;;;;4.20;nan;101491.84;10361886;28;20045;-76
2023/10/15 06:04:02;;;;;;;12.88;9.10;;;;;;;4.20;nan;101495.34;10362900;28;20537;-77
2023/10/15 06:09:05;;;;;;;;;;;;;;;4.07;nan;101501.19;10359273;28;20050;-78
2023/10/15 06:14:05;;;;;;;18.95;11.30;;;;;;;4.06;nan;101498.47;10361492;28;20013;-78
2023/10/15 06:19:06;;;;;;;15.93;10.13;;;;;;;4.10;nan;101510.91;10364833;28;20371;-77
2023/10/15 06:24:09;;;;;;;18.23;12.73;;;;;;;4.29;nan;101513.34;10363603;28;20463;-78
2023/10/15 06:29:10;;;;;;;22.40;15.10;;;;;;;4.44;nan;101543.91;10346551;28;20041;-79
2023/10/15 06:34:11;;;;;;;25.45;17.30;;;;;;;4.62;nan;101553.22;10378122;28;20065;-78
2023/10/15 06:39:11;;;;;;;25.00;17.55;;;;;;;4.80;nan;101555.50;10361752;28;20084;-78
2023/10/15 06:44:12;;;;;;;27.02;18.90;;;;;;;4.84;nan;101570.53;10357503;28;20042;-77
2023/10/15 06:49:12;;;;;;;27.48;20.45;;;;;;;4.94;nan;101564.44;10344866;28;20080;-77
2023/10/15 06:54:13;;;;;;;29.63;21.23;;;;;;;5.03;nan;101553.88;10360545;28;20073;-76
2023/10/15 06:59:17;;;;;;;29.23;19.17;;;;;;;5.07;nan;101559.44;10357948;28;20042;-77
2023/10/15 07:04:18;;;;;;;23.77;18.85;;;;;;;5.12;nan;101558.13;10361371;28;20160;-75
2023/10/15 07:09:19;;;;;;;24.30;15.80;;;;;;;5.22;nan;101587.44;10343776;28;20030;-75
2023/10/15 07:14:20;;;;;;;21.95;16.17;;;;;;;5.40;nan;101572.41;10319332;28;20844;-75
2023/10/15 07:19:20;;;;;;;24.55;17.35;;;;;;;5.45;nan;101576.28;10347957;28;20573;-75
2023/10/15 07:24:22;;;;;;;19.63;15.45;;;;;;;5.50;nan;101587.94;10349407;28;20105;-75
2023/10/15 07:29:24;;;;;;;21.02;13.68;;;;;;;5.53;nan;101577.78;10318825;28;20161;-76
2023/10/15 07:34:24;;;;;;;18.70;11.65;;;;;;;5.59;nan;101573.09;10319995;28;20046;-76
2023/10/15 07:39:25;;;;;;;17.27;12.90;;;;;;;5.64;nan;101575.13;10318428;28;20061;-76
2023/10/15 07:44:25;;;;;;;15.20;10.13;;;;;;;5.55;nan;101568.44;10316495;28;20050;-76
2023/10/15 07:49:26;;;;;;;15.85;10.23;;;;;;;5.61;nan;101582.69;10302030;28;20042;-77
2023/10/15 07:54:26;;;;;;;15.27;10.77;;;;;;;5.78;nan;101603.09;10318476;28;20092;-77
2023/10/15 07:59:27;;;;;;;18.13;11.60;;;;;;;6.03;nan;101605.06;10318550;28;20074;-76
2023/10/15 08:04:28;;;;;;;14.43;10.38;;;;;;;6.18;nan;101613.16;10325893;28;20030;-77
2023/10/15 08:09:29;;;;;;;12.88;10.05;;;;;;;6.51;nan;101620.81;10334552;28;20042;-76
2023/10/15 08:14:30;;;;;;;23.05;11.07;;;;;;;6.71;nan;101615.44;10335812;28;20060;-77
2023/10/15 08:19:30;;;;;;;11.68;6.97;;;;;;;6.69;nan;101624.81;10366827;28;20490;-76
2023/10/15 08:24:35;;;;;;;15.15;7.00;;;;;;;6.75;nan;101634.78;10357396;28;20462;-75
2023/10/15 08:29:35;;;;;;;11.45;5.43;;;;;;;6.86;nan;101636.50;10355855;28;20042;-76
2023/10/15 08:34:36;;;;;;;11.80;6.15;;;;;;;7.01;nan;101646.25;10334475;28;20040;-76
2023/10/15 08:39:38;;;;;;;12.43;5.97;;;;;;;7.41;nan;101649.19;10356276;28;20132;-77
2023/10/15 08:44:39;;;;;;;;;;;;;;;7.82;nan;101642.53;10355149;28;20077;-77
2023/10/15 08:49:45;;;;;;;10.27;5.32;;;;;;;8.38;nan;101647.31;10352225;28;19992;-78
2023/10/15 08:54:46;;;;;;;10.25;6.25;;;;;;;8.96;nan;101651.19;10332924;28;20045;-78
2023/10/15 08:59:47;;;;;;;5.63;4.03;;;;;;;8.50;nan;101636.84;10356725;28;20042;-77
2023/10/15 09:04:47;;;;;;;8.13;4.32;;;;;;;7.80;nan;101623.28;10377676;28;20045;-78
2023/10/15 09:09:49;;;;;;;6.78;4.80;;;;;;;7.52;nan;101643.88;10347057;28;20057;-77
2023/10/15 09:14:49;;;;;;;10.47;5.20;;;;;;;7.40;nan;101668.22;10349014;28;20030;-78
2023/10/15 09:19:50;;;;;;;8.15;5.60;;;;;;;7.53;nan;101689.97;10381145;28;20457;-78
2023/10/15 09:24:50;;;;;;;7.68;6.28;;;;;;;7.53;nan;101697.78;10362608;28;20058;-78
2023/10/15 09:30:14;;;;;;;7.82;6.03;;;;;;;7.45;nan;101710.22;10378179;28;20125;-77
2023/10/15 09:35:16;;;;;;;6.45;5.30;;;;;;;7.54;nan;101723.03;10339859;28;20058;-78
2023/10/15 09:40:35;;;;;;;14.70;6.47;;;;;;;7.48;nan;101744.31;10364771;28;20034;-77
2023/10/15 09:45:36;;;;;;;7.25;4.30;;;;;;;7.44;nan;101747.47;10347486;28;20034;-77
2023/10/15 09:50:41;;;;;;;6.85;5.07;;;;;;;7.33;nan;101760.59;10345732;28;20048;-78
2023/10/15 09:55:41;;;;;;;9.40;4.10;;;;;;;7.01;nan;101766.88;10363674;28;20045;-79
2023/10/15 10:05:58;;;;;;;7.97;3.60;;;;;;;6.99;nan;101773.66;10362848;28;20379;-79
2023/10/15 10:11:14;;;;;;;6.35;3.20;;;;;;;7.14;nan;101778.22;10380749;28;20497;-77
2023/10/15 10:16:25;;;;;;;4.22;2.53;;;;;;;7.44;nan;101781.34;10362668;28;20490;-78
2023/10/15 10:21:30;;;;;;;6.22;1.95;;;;;;;7.77;nan;101782.94;10346528;28;20038;-77
2023/10/15 10:26:32;;;;;;;3.42;1.80;;;;;;;8.30;nan;101771.09;10341131;28;20042;-78
2023/10/15 10:31:39;;;;;;;;;;;;;;;8.71;nan;101766.09;10373790;28;20050;-79
2023/10/15 10:36:39;;;;;;;5.90;1.48;;;;;;;8.98;nan;101784.47;10362665;28;20266;-78
2023/10/15 10:41:46;;;;;;;2.80;1.20;;;;;;;10.15;nan;101778.22;10360243;28;20121;-78
2023/10/15 10:46:46;;;;;;;3.72;1.60;;;;;;;11.19;nan;101774.16;10359636;28;20034;-78
2023/10/15 10:52:14;;;;;;;2.80;1.17;;;;;;;13.51;nan;101814.88;10358997;28;21099;-78
2023/10/15 10:57:18;;;;;;;2.83;1.30;;;;;;;14.65;nan;101821.19;10377073;28;20096;-78
2023/10/15 11:02:25;;;;;;;3.28;1.00;;;;;;;13.79;nan;101868.88;10351268;28;20034;-79
2023/10/15 11:07:36;;;;;;;2.20;1.08;;;;;;;10.81;nan;101840.81;10336257;28;20116;-81
2023/10/15 11:12:37;;;;;;;2.45;0.95;;;;;;;9.89;nan;101824.53;10355328;28;20094;-81
2023/10/15 11:17:37;;;;;;;2.83;1.27;;;;;;;9.72;nan;101826.03;10360781;28;20034;-80
2023/10/15 11:22:39;;;;;;;3.03;0.88;;;;;;;9.62;nan;101828.84;10347048;28;20136;-80
2023/10/15 11:27:39;;;;;;;3.00;1.97;;;;;;;9.43;nan;101830.22;10334338;28;20121;-77
2023/10/15 11:32:40;;;;;;;4.30;1.80;;;;;;;9.49;nan;101830.63;10335426;28;20170;-78
2023/10/15 11:37:40;;;;;;;5.57;1.30;;;;;;;9.76;nan;101830.66;10372518;28;20116;-78
2023/10/15 11:42:54;;;;;;;1.02;0.65;;;;;;;10.32;nan;101844.72;10371959;28;20089;-80
2023/10/15 11:47:55;;;;;;;2.78;0.60;;;;;;;11.08;nan;101859.06;10354487;28;20034;-82
2023/10/15 11:52:55;;;;;;;2.60;1.00;;;;;;;14.54;nan;101872.47;10379271;28;20402;-81
2023/10/15 11:57:56;;;;;;;3.67;1.67;;;;;;;16.54;nan;101939.28;10342075;28;20175;-77
2023/10/15 12:03:00;;;;;;;3.00;0.80;;;;;;;17.41;nan;101971.72;10327601;28;20055;-80
2023/10/15 12:08:03;;;;;;;6.28;1.73;;;;;;;15.39;nan;101946.69;10322657;28;20061;-78
2023/10/15 12:13:03;;;;;;;5.18;1.48;;;;;;;16.82;nan;101948.31;10367347;28;20045;-78
2023/10/15 12:18:04;;;;;;;3.95;2.10;;;;;;;18.15;nan;101985.81;10369511;28;20394;-78
2023/10/15 12:23:07;;;;;;;4.85;1.08;;;;;;;18.93;nan;102002.47;10361650;28;20045;-78
2023/10/15 12:28:08;;;;;;;3.28;0.93;;;;;;;19.14;nan;101998.69;10388419;28;20038;-77
2023/10/15 12:33:10;;;;;;;4.72;1.08;;;;;;;18.31;nan;102000.47;10354140;28;20441;-77
2023/10/15 12:38:16;;;;;;;22.33;2.17;;;;;;;16.40;nan;101998.59;10351374;28;20069;-76
2023/10/15 12:43:17;;;;;;;5.80;1.23;;;;;;;15.23;nan;101971.47;10346286;28;20116;-79
2023/10/15 12:48:19;;;;;;;6.65;1.45;;;;;;;16.30;nan;101973.50;10355940;28;20029;-77
2023/10/15 12:53:20;;;;;;;4.55;1.13;;;;;;;16.00;nan;101974.94;10356279;28;20037;-78
2023/10/15 12:58:20;;;;;;;6.93;1.27;;;;;;;15.88;nan;101973.47;10382640;28;20122;-78
2023/10/15 13:03:21;;;;;;;4.40;1.50;;;;;;;17.38;nan;101992.78;10366326;28;20124;-78
2023/10/15 13:08:21;;;;;;;3.97;0.90;;;;;;;17.51;nan;101998.53;10350045;28;20030;-78
2023/10/15 13:13:22;;;;;;;4.03;1.20;;;;;;;16.09;nan;101998.16;10302647;28;20117;-77
2023/10/15 13:18:23;;;;;;;2.72;1.00;;;;;;;17.53;nan;102005.66;10334416;28;20041;-81
2023/10/15 13:23:24;;;;;;;5.43;1.23;;;;;;;17.11;nan;101998.81;10340248;28;20072;-78
2023/10/15 13:28:25;;;;;;;2.53;0.77;;;;;;;17.59;nan;102003.22;10362428;28;20569;-78
2023/10/15 13:33:25;;;;;;;5.13;1.48;;;;;;;16.93;nan;102006.00;10397752;28;20041;-79
2023/10/15 13:38:26;;;;;;;5.72;1.48;;;;;;;13.93;nan;102011.69;10364950;28;20121;-80
2023/10/15 13:43:26;;;;;;;12.23;3.75;;;;;;;11.90;nan;101974.06;10379308;28;20132;-79
2023/10/15 13:48:27;;;;;;;5.72;3.42;;;;;;;13.61;nan;101963.56;10360132;28;20054;-78
2023/10/15 13:53:30;;;;;;;6.43;1.25;;;;;;;16.04;nan;102002.34;10363126;28;20049;-78
2023/10/15 13:58:30;;;;;;;4.28;1.17;;;;;;;15.71;nan;102005.28;10364759;28;20517;-78
2023/10/15 14:03:31;;;;;;;8.07;1.65;;;;;;;16.30;nan;102010.47;10394423;28;20058;-79
2023/10/15 14:08:31;;;;;;;4.15;1.30;;;;;;;15.73;nan;102008.88;10350532;28;20050;-78
2023/10/15 14:13:32;;;;;;;9.25;2.58;;;;;;;12.57;nan;102013.03;10364745;28;20038;-78
2023/10/15 14:18:33;;;;;;;8.25;1.48;;;;;;;10.80;nan;101996.13;10362084;28;20129;-78
2023/10/15 14:23:34;;;;;;;8.80;1.87;;;;;;;9.53;nan;101981.59;10380689;28;20038;-78
2023/10/15 14:28:35;;;;;;;11.90;1.83;;;;;;;8.92;nan;101978.16;10377785;28;20026;-77
2023/10/15 14:33:37;;;;;;;8.15;1.77;;;;;;;8.47;nan;101972.28;10362513;28;20422;-77
2023/10/15 14:38:38;;;;;;;8.57;2.83;;;;;;;8.13;nan;101959.31;10363057;28;20040;-78
2023/10/15 14:43:38;;;;;;;6.45;2.08;;;;;;;7.86;nan;101946.91;10363834;28;20048;-78
2023/10/15 14:48:40;;;;;;;11.27;2.37;;;;;;;7.80;nan;101941.22;10362396;28;20072;-77
2023/10/15 14:53:40;;;;;;;5.15;1.27;;;;;;;7.96;nan;101931.97;10345279;28;20522;-77
2023/10/15 14:58:41;;;;;;;5.13;1.63;;;;;;;8.07;nan;101925.84;10360791;28;20121;-77
2023/10/15 15:03:41;;;;;;;6.82;1.75;;;;;;;9.44;nan;101928.69;10361083;28;20168;-77
2023/10/15 15:08:42;;;;;;;3.10;1.00;;;;;;;9.02;nan;101936.22;10362238;28;20596;-78
2023/10/15 15:13:42;;;;;;;6.47;1.23;;;;;;;8.38;nan;101941.19;10376514;28;20058;-78
2023/10/15 15:18:43;;;;;;;4.13;1.10;;;;;;;7.70;nan;101941.31;10356455;28;20042;-78
2023/10/15 15:23:43;;;;;;;6.15;1.17;;;;;;;7.22;nan;101948.06;10357982;28;20049;-77
2023/10/15 15:28:44;;;;;;;11.65;1.50;;;;;;;6.89;nan;101940.28;10356609;28;20057;-77
2023/10/15 15:33:44;;;;;;;10.68;1.95;;;;;;;6.63;nan;101939.13;10360343;28;20756;-76
2023/10/15 15:38:45;;;;;;;3.13;1.52;;;;;;;6.44;nan;101940.22;10356419;28;20044;-78
2023/10/15 15:43:46;;;;;;;4.80;1.30;;;;;;;6.26;nan;101939.63;10356765;28;20049;-77
2023/10/15 15:48:46;;;;;;;4.35;2.97;;;;;;;6.32;nan;101936.63;10356762;28;20061;-77
2023/10/15 15:53:47;;;;;;;3.80;0.90;;;;;;;6.50;nan;101926.81;10358151;28;20371;-76
2023/10/15 15:58:49;;;;;;;5.65;0.95;;;;;;;6.76;nan;101938.44;10362367;28;20120;-76
2023/10/15 16:03:50;;;;;;;6.43;0.73;;;;;;;6.92;nan;101943.16;10355430;28;20482;-76
2023/10/15 16:08:51;;;;;;;6.73;1.00;;;;;;;6.92;nan;101937.94;10355306;28;20050;-76
2023/10/15 16:13:52;;;;;;;2.17;0.80;;;;;;;6.77;nan;101948.03;10345997;28;20038;-79
2023/10/15 16:18:53;;;;;;;5.65;1.63;;;;;;;6.52;nan;101953.88;10335268;28;20124;-79
2023/10/15 16:23:54;;;;;;;4.15;0.98;;;;;;;6.22;nan;101952.25;10357127;28;20041;-79
2023/10/15 16:28:54;;;;;;;3.80;1.63;;;;;;;5.90;nan;101968.63;10357144;28;20117;-79
2023/10/15 16:33:55;;;;;;;5.60;1.02;;;;;;;5.48;nan;101966.00;10343754;28;20113;-79
2023/10/15 16:38:56;;;;;;;1.90;1.08;;;;;;;5.26;nan;101978.84;10363285;28;20116;-79
2023/10/15 16:43:56;;;;;;;3.90;0.98;;;;;;;5.16;nan;101984.91;10330641;28;20121;-79
2023/10/15 16:48:57;;;;;;;4.00;0.98;;;;;;;4.89;nan;101993.78;10317053;28;20048;-80
2023/10/15 16:53:57;;;;;;;4.28;1.10;;;;;;;4.69;nan;102001.59;10358047;28;20129;-79
2023/10/15 16:58:58;;;;;;;5.95;1.25;;;;;;;4.39;nan;102008.41;10375124;28;20274;-79
2023/10/15 17:03:59;;;;;;;9.50;2.63;;;;;;;4.13;nan;102012.91;10350248;28;20048;-79
2023/10/15 17:09:00;;;;;;;4.40;0.85;;;;;;;3.95;nan;102036.31;10341056;28;20125;-79
2023/10/15 17:14:01;;;;;;;5.47;1.23;;;;;;;3.90;nan;102040.16;10341280;28;20044;-80
2023/10/15 17:19:02;;;;;;;3.55;0.98;;;;;;;3.75;nan;102044.84;10357396;28;20117;-79
2023/10/15 17:24:02;;;;;;;3.53;1.13;;;;;;;3.63;nan;102060.09;10359413;28;20042;-79
2023/10/15 17:29:05;;;;;;;3.97;2.38;;;;;;;3.64;nan;102059.34;10356371;28;20038;-79
2023/10/15 17:34:06;;;;;;;5.43;2.17;;;;;;;3.59;nan;102053.75;10357224;28;20437;-79
2023/10/15 17:39:07;;;;;;;3.08;1.45;;;;;;;3.44;nan;102057.47;10343006;28;20096;-79
2023/10/15 17:44:07;;;;;;;3.58;1.73;;;;;;;3.28;nan;102062.81;10362307;28;20437;-79
2023/10/15 17:49:08;;;;;;;4.40;1.83;;;;;;;3.18;nan;102064.53;10366027;28;20082;-80
2023/10/15 17:54:08;;;;;;;17.48;2.90;;;;;;;3.14;nan;102075.34;10363027;28;20041;-80
2023/10/15 17:59:09;;;;;;;5.43;1.88;;;;;;;3.13;nan;102078.69;10365043;28;20046;-79
2023/10/15 18:04:09;;;;;;;4.13;1.75;;;;;;;3.15;nan;102082.34;10363979;28;20041;-79
2023/10/15 18:09:12;;;;;;;7.43;1.75;;;;;;;3.15;nan;102079.75;10337323;28;20141;-79
2023/10/15 18:14:13;;;;;;;10.02;2.70;;;;;;;3.05;nan;102088.31;10341063;28;20053;-79
2023/10/15 18:19:14;;;;;;;7.28;1.85;;;;;;;3.02;nan;102085.44;10359430;28;20034;-79
2023/10/15 18:24:14;;;;;;;5.60;2.00;;;;;;;2.89;nan;102074.66;10362842;28;20046;-80
2023/10/15 18:29:15;;;;;;;4.32;2.13;;;;;;;2.89;nan;102077.22;10379382;28;20046;-79
2023/10/15 18:34:15;;;;;;;4.80;2.25;;;;;;;2.73;nan;102083.47;10362532;28;20045;-78
2023/10/15 18:39:18;;;;;;;7.38;3.25;;;;;;;2.67;nan;102087.13;10363877;28;20061;-79
2023/10/15 18:44:19;;;;;;;3.78;2.08;;;;;;;2.59;nan;102087.25;10361179;28;20500;-78
2023/10/15 18:49:20;;;;;;;7.15;3.53;;;;;;;2.55;nan;102086.81;10346799;28;20042;-78
2023/10/15 18:54:20;;;;;;;5.88;2.92;;;;;;;2.42;nan;102095.00;10346131;28;20510;-79
2023/10/15 18:59:21;;;;;;;8.02;4.25;;;;;;;2.40;nan;102093.94;10360807;28;20129;-79
2023/10/15 19:04:22;;;;;;;6.20;2.42;;;;;;;2.34;nan;102102.00;10363187;28;20049;-78
2023/10/15 19:09:23;;;;;;;10.40;4.43;;;;;;;2.45;nan;102097.91;10361995;28;20046;-78
2023/10/15 19:14:23;;;;;;;9.73;3.53;;;;;;;2.43;nan;102110.69;10361056;28;20116;-79
2023/10/15 19:19:25;;;;;;;11.32;4.65;;;;;;;2.61;nan;102100.34;10380072;28;20081;-79
2023/10/15 19:24:27;;;;;;;13.82;5.32;;;;;;;2.57;nan;102101.72;10364449;28;20108;-79
2023/10/15 19:29:27;;;;;;;8.85;4.63;;;;;;;2.48;nan;102103.38;10359174;28;20045;-78
2023/10/15 19:34:28;;;;;;;11.55;6.28;;;;;;;2.62;nan;102113.41;10362235;28;20065;-78
2023/10/15 19:39:28;;;;;;;12.05;7.07;;;;;;;2.93;nan;102103.53;10359900;28;20078;-79
2023/10/15 19:44:29;;;;;;;9.85;6.25;;;;;;;2.89;nan;102101.41;10377341;28;20125;-79
2023/10/15 19:49:29;;;;;;;10.93;6.97;;;;;;;2.74;nan;102102.47;10360478;28;20579;-82
2023/10/15 19:54:30;;;;;;;10.50;5.80;;;;;;;2.55;nan;102100.66;10359754;28;20124;-78
2023/10/15 19:59:31;;;;;;;8.07;5.95;;;;;;;2.48;nan;102100.78;10360311;28;20077;-79
2023/10/15 20:04:31;;;;;;;12.25;7.20;;;;;;;2.34;nan;102102.00;10360530;28;20069;-78
2023/10/15 20:09:34;;;;;;;15.25;8.60;;;;;;;2.47;nan;102101.56;10359038;28;20410;-79
2023/10/15 20:14:34;;;;;;;;;;;;;;;2.65;nan;102102.50;10360483;28;20041;-79
2023/10/15 20:19:36;;;;;;;13.50;7.82;;;;;;;2.74;nan;102099.88;10367651;28;20276;-78
2023/10/15 20:24:37;;;;;;;15.73;9.18;;;;;;;2.75;nan;102101.72;10355148;28;20045;-78
2023/10/15 20:29:38;;;;;;;20.55;11.45;;;;;;;2.68;nan;102096.69;10336972;28;20490;-78
2023/10/15 20:34:38;;;;;;;21.05;12.63;;;;;;;2.63;nan;102097.16;10352928;28;20115;-78
2023/10/15 20:39:40;;;;;;;19.75;11.75;;;;;;;2.68;nan;102099.28;10373527;28;20038;-80
2023/10/15 20:44:40;;;;;;;19.20;12.73;;;;;;;2.71;nan;102097.94;10356536;28;20033;-78
2023/10/15 20:49:41;;;;;;;22.13;10.57;;;;;;;2.77;nan;102092.44;10358893;28;20848;-79
2023/10/15 20:54:42;;;;;;;23.40;15.88;;;;;;;2.86;nan;102098.50;10358718;28;20103;-78
2023/10/15 20:59:43;;;;;;;26.55;14.82;;;;;;;2.91;nan;102089.53;10374305;28;20397;-78
2023/10/15 21:04:44;;;;;;;26.85;15.55;;;;;;;2.79;nan;102093.50;10355496;28;20478;-78
2023/10/15 21:09:44;;;;;;;24.25;16.45;;;;;;;2.71;nan;102087.59;10342651;28;20042;-78
2023/10/15 21:14:45;;;;;;;32.22;19.50;;;;;;;2.75;nan;102084.53;10338068;28;20056;-79
2023/10/15 21:19:45;;;;;;;27.42;17.33;;;;;;;2.75;nan;102076.78;10349843;28;20049;-79
2023/10/15 21:24:46;;;;;;;26.90;18.83;;;;;;;2.72;nan;102088.47;10365556;28;20133;-80
2023/10/15 21:29:46;;;;;;;32.55;18.50;;;;;;;2.73;nan;102077.38;10357495;28;20070;-79
2023/10/15 21:34:47;;;;;;;33.55;18.17;;;;;;;2.70;nan;102078.00;10359973;28;20541;-79
2023/10/15 21:39:48;;;;;;;27.40;17.15;;;;;;;2.55;nan;102071.31;10363357;28;20109;-77
2023/10/15 21:44:48;;;;;;;31.17;19.50;;;;;;;2.55;nan;102068.72;10364982;28;20486;-78
2023/10/15 21:49:49;;;;;;;31.33;18.55;;;;;;;2.36;nan;102074.66;10361754;28;20145;-78
2023/10/15 21:54:49;;;;;;;33.33;19.42;;;;;;;2.13;nan;102065.50;10364270;28;20054;-79
2023/10/15 21:59:50;;;;;;;32.47;18.65;;;;;;;1.98;nan;102070.00;10379511;28;20049;-79
2023/10/15 22:04:51;;;;;;;38.80;20.35;;;;;;;2.31;nan;102066.41;10368409;28;20069;-78
2023/10/15 22:09:52;;;;;;;29.02;18.73;;;;;;;2.22;nan;102059.44;10376952;28;20034;-79
2023/10/15 22:14:52;;;;;;;30.75;19.77;;;;;;;2.09;nan;102062.44;10366043;28;20434;-78
2023/10/15 22:19:54;;;;;;;27.60;19.77;;;;;;;2.16;nan;102052.91;10347619;28;20113;-78
2023/10/15 22:24:54;;;;;;;25.85;17.40;;;;;;;1.99;nan;102051.19;10349071;28;20037;-79
2023/10/15 22:29:55;;;;;;;28.85;17.30;;;;;;;1.99;nan;102046.00;10364289;28;20126;-78
2023/10/15 22:34:56;;;;;;;27.60;17.67;;;;;;;1.87;nan;102043.13;10346619;28;20042;-78
2023/10/15 22:39:57;;;;;;;28.52;18.30;;;;;;;1.62;nan;102037.09;10361363;28;20046;-79
2023/10/15 22:44:57;;;;;;;30.65;17.92;;;;;;;1.59;nan;102040.31;10368025;28;20160;-79
2023/10/15 22:49:59;;;;;;;30.48;19.33;;;;;;;1.48;nan;102038.28;10363364;28;20117;-79
2023/10/15 22:55:07;;;;;;;29.33;19.48;;;;;;;1.45;nan;102033.69;10364410;28;20099;-79
2023/10/15 23:00:12;;;;;;;30.30;18.15;;;;;;;1.43;nan;102027.47;10346513;28;20042;-79
2023/10/15 23:05:15;;;;;;;31.35;17.90;;;;;;;1.39;nan;102030.50;10346106;28;20064;-79
2023/10/15 23:10:15;;;;;;;25.23;17.98;;;;;;;1.31;nan;102028.78;10346362;28;20038;-79
2023/10/15 23:15:16;;;;;;;29.83;18.27;;;;;;;1.22;nan;102030.41;10362522;28;20037;-79
2023/10/15 23:25:23;;;;;;;32.92;19.13;;;;;;;1.19;nan;102019.78;10342150;28;20100;-79
2023/10/15 23:30:24;;;;;;;24.02;18.77;;;;;;;1.11;nan;102029.31;10374881;28;20057;-79
2023/10/15 23:35:26;;;;;;;33.50;18.50;;;;;;;1.04;nan;102021.69;10362055;28;20462;-79
2023/10/15 23:40:26;;;;;;;30.48;20.55;;;;;;;0.94;nan;102030.09;10342213;28;20044;-78
2023/10/15 23:45:27;;;;;;;27.52;19.25;;;;;;;0.85;nan;102027.50;10361257;28;20034;-78
2023/10/15 23:50:31;;;;;;;28.17;18.33;;;;;;;0.96;nan;102019.22;10362522;28;20030;-78
2023/10/15 23:55:35;;;;;;;29.67;18.02;;;;;;;1.01;nan;102025.78;10360735;28;20034;-78
